Terminal Aerodrome Forecast
Issued by NWS

Home | Current Version | Previous Version | Text Only | Print | Product List | Glossary Off
Versions: 1 2 3 4 5 6 7 8 9 10 11 12 13 14 15 16 17 18 19 20 21

551
FTUS43 KFGF 250339 AAA
TAFBJI
TAF AMD
KBJI 250339Z 2504/2524 11005KT P6SM OVC025
     FM251400 13008KT P6SM SCT015
     FM252000 13009KT P6SM FEW200=

USA.gov is the U.S. government's official web portal to all federal, state and local government web resources and services.